createdAt,value
2017-11-15T00:00:11.984Z,10.2
2017-11-15T00:00:38.097Z,10.19
2017-11-15T00:01:04.249Z,10.12
2017-11-15T00:01:30.371Z,10.16
2017-11-15T00:01:56.508Z,10.16
2017-11-15T00:02:22.611Z,10.15
2017-11-15T00:02:48.752Z,10.19
2017-11-15T00:03:14.867Z,10.2
2017-11-15T00:03:40.994Z,10.19
2017-11-15T00:04:07.118Z,10.15
2017-11-15T00:04:33.267Z,10.17
2017-11-15T00:04:59.404Z,10.19
2017-11-15T00:05:25.524Z,10.23
2017-11-15T00:05:51.640Z,10.17
2017-11-15T00:06:17.789Z,10.26
2017-11-15T00:06:43.918Z,10.15
2017-11-15T00:07:10.036Z,10.05
2017-11-15T00:07:36.172Z,10.2
2017-11-15T00:08:02.307Z,10.1
2017-11-15T00:08:28.431Z,10.04
2017-11-15T00:08:54.546Z,10.19
2017-11-15T00:09:20.668Z,10.2
2017-11-15T00:09:46.856Z,10.22
2017-11-15T00:10:12.991Z,10.22
2017-11-15T00:10:39.113Z,10.2
2017-11-15T00:11:05.232Z,10.15
2017-11-15T00:11:31.359Z,10.13
2017-11-15T00:11:57.482Z,10.15
2017-11-15T00:12:23.596Z,10.15
2017-11-15T00:12:49.724Z,10.04
2017-11-15T00:13:15.845Z,10.17
2017-11-15T00:13:41.966Z,10.28
2017-11-15T00:14:08.092Z,10.26
2017-11-15T00:14:34.207Z,10.31
2017-11-15T00:15:00.324Z,10.26
2017-11-15T00:15:26.476Z,10.3
2017-11-15T00:15:52.598Z,10.26
2017-11-15T00:16:18.738Z,10.17
2017-11-15T00:16:44.861Z,10.23
2017-11-15T00:17:10.975Z,10.16
2017-11-15T00:17:37.104Z,10.16
2017-11-15T00:18:03.227Z,10.1
2017-11-15T00:18:29.356Z,10.1
2017-11-15T00:18:55.475Z,10.15
2017-11-15T00:19:21.604Z,10.15
2017-11-15T00:19:47.732Z,10.15
2017-11-15T00:20:13.845Z,10.23
2017-11-15T00:20:39.972Z,10.2
2017-11-15T00:21:06.088Z,10.19
2017-11-15T00:21:32.214Z,10.19
2017-11-15T00:21:58.352Z,10.2
2017-11-15T00:22:24.475Z,10.17
2017-11-15T00:22:50.595Z,10.16
2017-11-15T00:23:16.718Z,10.22
2017-11-15T00:23:42.853Z,10.17
2017-11-15T00:24:08.982Z,10.19
2017-11-15T00:24:35.105Z,10.23
2017-11-15T00:25:01.225Z,10.25
2017-11-15T00:25:27.352Z,10.17
2017-11-15T00:25:53.467Z,10.19
2017-11-15T00:26:19.590Z,10.15
2017-11-15T00:26:45.747Z,10.19
2017-11-15T00:27:11.859Z,10.2
2017-11-15T00:27:37.983Z,10.2
2017-11-15T00:28:04.098Z,10.15
2017-11-15T00:28:30.220Z,10.13
2017-11-15T00:28:56.366Z,9.99
2017-11-15T00:29:22.501Z,10.01
2017-11-15T00:29:48.627Z,10.12
2017-11-15T00:30:14.743Z,10.02
2017-11-15T00:30:40.870Z,10.02
2017-11-15T00:31:07.011Z,10.09
2017-11-15T00:31:33.128Z,10.1
2017-11-15T00:31:59.287Z,10.05
2017-11-15T00:32:25.416Z,10.07
2017-11-15T00:32:51.536Z,10.1
2017-11-15T00:33:17.653Z,10.02
2017-11-15T00:33:43.777Z,10.02
2017-11-15T00:34:09.899Z,10.1
2017-11-15T00:34:36.038Z,10.16
2017-11-15T00:35:02.162Z,10.05
2017-11-15T00:35:28.288Z,10.04
2017-11-15T00:35:54.406Z,10.13
2017-11-15T00:36:20.525Z,10.09
2017-11-15T00:36:46.650Z,10.05
2017-11-15T00:37:12.774Z,10.13
2017-11-15T00:37:38.894Z,10.13
2017-11-15T00:38:05.008Z,10.16
2017-11-15T00:38:31.153Z,10.19
2017-11-15T00:38:57.276Z,10.19
2017-11-15T00:39:23.420Z,10.16
2017-11-15T00:39:49.543Z,10.28
2017-11-15T00:40:15.694Z,10.26
2017-11-15T00:40:41.820Z,10.25
2017-11-15T00:41:07.939Z,10.28
2017-11-15T00:41:34.059Z,10.26
2017-11-15T00:42:00.178Z,10.31
2017-11-15T00:42:26.305Z,10.28
2017-11-15T00:42:52.442Z,10.28
2017-11-15T00:43:18.566Z,10.25
2017-11-15T00:43:44.691Z,10.34
2017-11-15T00:44:10.809Z,10.23
2017-11-15T00:44:36.929Z,10.26
2017-11-15T00:45:03.052Z,10.25
2017-11-15T00:45:29.171Z,10.23
2017-11-15T00:45:55.290Z,10.26
2017-11-15T00:46:21.417Z,10.16
2017-11-15T00:46:47.540Z,10.12
2017-11-15T00:47:13.660Z,10.15
2017-11-15T00:47:39.782Z,10.04
2017-11-15T00:48:05.903Z,10.13
2017-11-15T00:48:32.065Z,10.05
2017-11-15T00:48:58.188Z,10.1
2017-11-15T00:49:24.304Z,10.1
2017-11-15T00:49:50.429Z,10.12
2017-11-15T00:50:16.550Z,10.17
2017-11-15T00:50:42.688Z,10.07
2017-11-15T00:51:08.812Z,10.04
2017-11-15T00:51:34.930Z,10.04
2017-11-15T00:52:01.057Z,10.05
2017-11-15T00:52:27.177Z,10.09
2017-11-15T00:52:53.295Z,10.05
2017-11-15T00:53:19.421Z,10.12
2017-11-15T00:53:45.537Z,10.15
2017-11-15T00:54:11.659Z,10.13
2017-11-15T00:54:37.780Z,10.05
2017-11-15T00:55:03.901Z,10.05
2017-11-15T00:55:30.022Z,10.07
2017-11-15T00:55:56.150Z,10.15
2017-11-15T00:56:22.279Z,10.04
2017-11-15T00:56:48.385Z,9.99
2017-11-15T00:57:14.510Z,10.09
2017-11-15T00:57:40.623Z,10.15
2017-11-15T00:58:06.747Z,10.2
2017-11-15T00:58:32.869Z,10.1
2017-11-15T00:58:59.017Z,10.12
2017-11-15T00:59:25.153Z,10.13
2017-11-15T00:59:51.298Z,10.13
2017-11-15T01:00:17.416Z,10.15
2017-11-15T01:00:43.538Z,10.12
2017-11-15T01:01:09.659Z,10.17
2017-11-15T01:01:35.792Z,10.2
2017-11-15T01:02:01.913Z,10.26
2017-11-15T01:02:28.032Z,10.17
2017-11-15T01:02:54.164Z,10.2
2017-11-15T01:03:20.288Z,10.13
2017-11-15T01:03:46.425Z,10.23
2017-11-15T01:04:12.552Z,10.12
2017-11-15T01:04:38.669Z,10.15
2017-11-15T01:05:04.793Z,10.12
2017-11-15T01:05:30.916Z,10.07
2017-11-15T01:05:57.036Z,10.09
2017-11-15T01:06:23.169Z,10.09
2017-11-15T01:06:49.296Z,10.12
2017-11-15T01:07:15.419Z,10.16
2017-11-15T01:07:41.547Z,10.07
2017-11-15T01:08:07.667Z,9.99
2017-11-15T01:08:33.783Z,9.97
2017-11-15T01:08:59.910Z,10.04
2017-11-15T01:09:26.034Z,10.05
2017-11-15T01:09:52.194Z,10.07
2017-11-15T01:10:18.314Z,10.12
2017-11-15T01:10:44.443Z,9.97
2017-11-15T01:11:10.565Z,9.95
2017-11-15T01:11:36.680Z,10.02
2017-11-15T01:12:02.805Z,9.97
2017-11-15T01:12:28.921Z,10.09
2017-11-15T01:12:56.582Z,10.1
2017-11-15T01:13:22.731Z,10.07
2017-11-15T01:13:48.867Z,10.12
2017-11-15T01:14:15.028Z,10.13
2017-11-15T01:14:41.169Z,10.22
2017-11-15T01:15:07.306Z,10.17
2017-11-15T01:15:33.454Z,10.16
2017-11-15T01:15:59.594Z,10.09
2017-11-15T01:16:25.735Z,10.07
2017-11-15T01:16:51.887Z,10.09
2017-11-15T01:17:18.027Z,9.94
2017-11-15T01:17:44.180Z,9.97
2017-11-15T01:18:10.325Z,10.04
2017-11-15T01:18:36.464Z,9.98
2017-11-15T01:19:02.615Z,9.97
2017-11-15T01:19:28.760Z,9.99
2017-11-15T01:19:54.908Z,10.05
2017-11-15T01:20:21.048Z,9.99
2017-11-15T01:20:47.194Z,9.95
2017-11-15T01:21:13.339Z,9.98
2017-11-15T01:21:39.516Z,9.99
2017-11-15T01:22:05.690Z,9.97
2017-11-15T01:22:31.829Z,9.98
2017-11-15T01:22:57.979Z,10.01
2017-11-15T01:23:24.122Z,9.99
2017-11-15T01:23:50.269Z,9.97
2017-11-15T01:24:16.440Z,9.97
2017-11-15T01:24:42.588Z,9.99
2017-11-15T01:25:08.728Z,10.05
2017-11-15T01:25:34.883Z,10.01
2017-11-15T01:26:01.023Z,10.07
2017-11-15T01:26:27.169Z,10.1
2017-11-15T01:26:53.314Z,10.05
2017-11-15T01:27:19.465Z,10.05
2017-11-15T01:27:45.613Z,10.09
2017-11-15T01:28:11.753Z,10.05
2017-11-15T01:28:37.891Z,10.1
2017-11-15T01:29:04.061Z,10.05
2017-11-15T01:29:30.209Z,10.07
2017-11-15T01:29:56.377Z,10.01
2017-11-15T01:30:22.515Z,9.98
2017-11-15T01:30:48.668Z,10.07
2017-11-15T01:31:14.830Z,10.1
2017-11-15T01:31:40.980Z,10.07
2017-11-15T01:32:07.127Z,10.1
2017-11-15T01:32:33.267Z,10.09
2017-11-15T01:32:59.411Z,10.07
2017-11-15T01:33:25.585Z,10.05
2017-11-15T01:33:51.730Z,10.09
2017-11-15T01:34:17.870Z,10.12
2017-11-15T01:34:44.041Z,10.01
2017-11-15T01:35:10.189Z,9.92
2017-11-15T01:35:36.334Z,9.95
2017-11-15T01:36:02.479Z,10.04
2017-11-15T01:36:28.616Z,10.01
2017-11-15T01:36:54.773Z,9.95
2017-11-15T01:37:20.907Z,10.01
2017-11-15T01:37:47.058Z,10.01
2017-11-15T01:38:13.195Z,9.99
2017-11-15T01:38:39.348Z,10.15
2017-11-15T01:39:05.493Z,10.09
2017-11-15T01:39:31.635Z,10.09
2017-11-15T01:39:57.781Z,10.04
2017-11-15T01:40:23.925Z,10.13
2017-11-15T01:40:50.069Z,10.12
2017-11-15T01:41:16.239Z,10.16
2017-11-15T01:41:42.404Z,10.13
2017-11-15T01:42:08.552Z,10.22
2017-11-15T01:42:34.692Z,10.16
2017-11-15T01:43:00.839Z,10.2
2017-11-15T01:43:26.981Z,10.16
2017-11-15T01:43:53.141Z,10.16
2017-11-15T01:44:19.264Z,10.3
2017-11-15T01:44:45.411Z,10.33
2017-11-15T01:45:11.552Z,10.26
2017-11-15T01:45:37.702Z,10.3
2017-11-15T01:46:03.852Z,10.28
2017-11-15T01:46:29.994Z,10.23
2017-11-15T01:46:56.135Z,10.17
2017-11-15T01:47:22.314Z,10.15
2017-11-15T01:47:48.489Z,10.17
2017-11-15T01:48:14.632Z,10.17
2017-11-15T01:48:40.775Z,10.17
2017-11-15T01:49:06.919Z,10.16
2017-11-15T01:49:33.072Z,10.2
2017-11-15T01:49:59.209Z,10.2
2017-11-15T01:50:25.382Z,10.23
2017-11-15T01:50:51.522Z,10.23
2017-11-15T01:51:17.671Z,10.22
2017-11-15T01:51:43.818Z,10.23
2017-11-15T01:52:09.967Z,10.23
2017-11-15T01:52:36.105Z,10.2
2017-11-15T01:53:02.251Z,10.22
2017-11-15T01:53:28.397Z,10.28
2017-11-15T01:53:54.593Z,10.23
2017-11-15T01:54:20.741Z,10.25
2017-11-15T01:54:46.916Z,10.28
2017-11-15T01:55:13.055Z,10.26
2017-11-15T01:55:39.205Z,10.3
2017-11-15T01:56:05.345Z,10.22
2017-11-15T01:56:31.490Z,10.34
2017-11-15T01:56:57.636Z,10.26
2017-11-15T01:57:23.776Z,10.31
2017-11-15T01:57:49.953Z,10.31
2017-11-15T01:58:16.091Z,10.25
2017-11-15T01:58:42.244Z,10.26
2017-11-15T01:59:08.394Z,10.23
2017-11-15T01:59:34.586Z,10.38
2017-11-15T02:00:00.734Z,10.28
2017-11-15T02:00:26.904Z,10.26
2017-11-15T02:00:53.049Z,10.31
2017-11-15T02:01:19.195Z,10.34
2017-11-15T02:01:45.340Z,10.31
2017-11-15T02:02:11.485Z,10.25
2017-11-15T02:02:37.630Z,10.25
2017-11-15T02:03:03.779Z,10.31
2017-11-15T02:03:29.925Z,10.25
2017-11-15T02:03:56.098Z,10.31
2017-11-15T02:04:22.206Z,10.3
2017-11-15T02:04:48.354Z,10.28
2017-11-15T02:05:14.495Z,10.3
2017-11-15T02:05:40.643Z,10.35
2017-11-15T02:06:06.787Z,10.25
2017-11-15T02:06:32.937Z,10.35
2017-11-15T02:06:59.115Z,10.35
2017-11-15T02:07:25.287Z,10.3
2017-11-15T02:07:51.435Z,10.33
2017-11-15T02:08:17.577Z,10.35
2017-11-15T02:08:43.709Z,10.34
2017-11-15T02:09:09.860Z,10.33
2017-11-15T02:09:36.010Z,10.31
2017-11-15T02:10:02.154Z,10.25
2017-11-15T02:10:28.288Z,10.23
2017-11-15T02:10:54.440Z,10.26
2017-11-15T02:11:20.587Z,10.37
2017-11-15T02:11:46.724Z,10.33
2017-11-15T02:12:12.883Z,10.35
2017-11-15T02:12:39.017Z,10.25
2017-11-15T02:13:05.172Z,10.31
2017-11-15T02:13:31.310Z,10.26
2017-11-15T02:13:57.452Z,10.2
2017-11-15T02:14:23.623Z,10.13
2017-11-15T02:14:49.825Z,10.17
2017-11-15T02:15:15.963Z,10.17
2017-11-15T02:15:42.113Z,10.09
2017-11-15T02:16:08.258Z,10.1
2017-11-15T02:16:34.420Z,10.07
2017-11-15T02:17:00.573Z,10.19
2017-11-15T02:17:26.720Z,10.17
2017-11-15T02:17:52.863Z,10.19
2017-11-15T02:18:19.003Z,10.23
2017-11-15T02:18:45.152Z,10.23
2017-11-15T02:19:11.299Z,10.22
2017-11-15T02:19:37.442Z,10.1
2017-11-15T02:20:03.596Z,10.15
2017-11-15T02:20:29.737Z,10.17
2017-11-15T02:20:55.875Z,10.12
2017-11-15T02:21:22.024Z,10.19
2017-11-15T02:21:48.163Z,10.2
2017-11-15T02:22:14.329Z,10.23
2017-11-15T02:22:40.458Z,10.3
2017-11-15T02:23:06.626Z,10.19
2017-11-15T02:23:32.772Z,10.22
2017-11-15T02:23:58.923Z,10.19
2017-11-15T02:24:25.067Z,10.17
2017-11-15T02:24:51.210Z,10.16
2017-11-15T02:25:17.361Z,10.16
2017-11-15T02:25:43.503Z,10.15
2017-11-15T02:26:09.649Z,10.19
2017-11-15T02:26:35.801Z,10.19
2017-11-15T02:27:01.949Z,10.25
2017-11-15T02:27:28.088Z,10.31
2017-11-15T02:27:54.237Z,10.31
2017-11-15T02:28:20.381Z,10.25
2017-11-15T02:28:46.525Z,10.31
2017-11-15T02:29:12.698Z,10.2
2017-11-15T02:29:38.866Z,10.26
2017-11-15T02:30:05.039Z,10.3
2017-11-15T02:30:31.183Z,10.22
2017-11-15T02:30:57.349Z,10.25
2017-11-15T02:31:23.497Z,10.28
2017-11-15T02:31:49.637Z,10.26
2017-11-15T02:32:15.782Z,10.3
2017-11-15T02:32:41.929Z,10.25
2017-11-15T02:33:08.077Z,10.22
2017-11-15T02:33:34.223Z,10.19
2017-11-15T02:34:00.391Z,10.19
2017-11-15T02:34:26.542Z,10.2
2017-11-15T02:34:52.690Z,10.19
2017-11-15T02:35:18.839Z,10.2
2017-11-15T02:35:45.009Z,10.25
2017-11-15T02:36:11.152Z,10.28
2017-11-15T02:36:37.321Z,10.25
2017-11-15T02:37:03.488Z,10.26
2017-11-15T02:37:29.643Z,10.3
2017-11-15T02:37:55.778Z,10.23
2017-11-15T02:38:21.928Z,10.22
2017-11-15T02:38:48.077Z,10.2
2017-11-15T02:39:14.224Z,10.25
2017-11-15T02:39:40.372Z,10.33
2017-11-15T02:40:06.511Z,10.22
2017-11-15T02:40:32.649Z,10.16
2017-11-15T02:40:58.793Z,10.2
2017-11-15T02:41:24.946Z,10.19
2017-11-15T02:41:51.088Z,10.17
2017-11-15T02:42:17.258Z,10.17
2017-11-15T02:42:43.400Z,10.15
2017-11-15T02:43:09.548Z,10.15
2017-11-15T02:43:35.701Z,10.19
2017-11-15T02:44:01.839Z,10.07
2017-11-15T02:44:27.993Z,9.92
2017-11-15T02:44:54.132Z,10.09
2017-11-15T02:45:20.277Z,10.04
2017-11-15T02:45:46.421Z,10.02
2017-11-15T02:46:12.605Z,10.1
2017-11-15T02:46:38.780Z,10.09
2017-11-15T02:47:04.917Z,10.07
2017-11-15T02:47:31.089Z,10.12
2017-11-15T02:47:57.229Z,10.05
2017-11-15T02:48:23.378Z,10.07
2017-11-15T02:48:49.524Z,10.1
2017-11-15T02:49:15.667Z,10.07
2017-11-15T02:49:41.841Z,10.05
2017-11-15T02:50:07.982Z,9.98
2017-11-15T02:50:34.122Z,10.07
2017-11-15T02:51:00.272Z,9.97
2017-11-15T02:51:26.411Z,10.04
2017-11-15T02:51:52.563Z,10.13
2017-11-15T02:52:18.714Z,10.1
2017-11-15T02:52:44.877Z,10.01
2017-11-15T02:53:11.023Z,10.01
2017-11-15T02:53:37.167Z,9.92
2017-11-15T02:54:03.306Z,10.07
2017-11-15T02:54:29.462Z,10.1
2017-11-15T02:54:55.636Z,9.97
2017-11-15T02:55:21.779Z,10.07
2017-11-15T02:55:47.921Z,9.98
2017-11-15T02:56:14.075Z,10.01
2017-11-15T02:56:40.213Z,10.07
2017-11-15T02:57:06.357Z,10.09
2017-11-15T02:57:32.505Z,10.09
2017-11-15T02:57:58.645Z,10.09
2017-11-15T02:58:24.795Z,10.05
2017-11-15T02:58:50.935Z,10.1
2017-11-15T02:59:17.080Z,10.13
2017-11-15T02:59:43.230Z,10.15
2017-11-15T03:00:09.387Z,10.12
2017-11-15T03:00:35.526Z,10.13
2017-11-15T03:01:01.700Z,10.1
2017-11-15T03:01:27.835Z,10.15
2017-11-15T03:01:53.976Z,10.17
2017-11-15T03:02:20.124Z,10.09
2017-11-15T03:02:46.268Z,10.04
2017-11-15T03:03:12.444Z,9.94
2017-11-15T03:03:38.595Z,10.01
2017-11-15T03:04:04.737Z,9.97
2017-11-15T03:04:30.877Z,10.02
2017-11-15T03:04:57.026Z,10.04
2017-11-15T03:05:23.168Z,9.97
2017-11-15T03:05:49.307Z,10.07
2017-11-15T03:06:15.458Z,10.12
2017-11-15T03:06:41.610Z,10.09
2017-11-15T03:07:07.746Z,10.12
2017-11-15T03:07:33.894Z,10.09
2017-11-15T03:08:00.046Z,10.04
2017-11-15T03:08:26.187Z,9.95
2017-11-15T03:08:52.329Z,10.1
2017-11-15T03:09:18.506Z,10.02
2017-11-15T03:09:44.671Z,10.05
2017-11-15T03:10:10.819Z,10.07
2017-11-15T03:10:36.968Z,10.01
2017-11-15T03:11:03.106Z,10.05
2017-11-15T03:11:29.255Z,10.05
2017-11-15T03:11:55.393Z,9.94
2017-11-15T03:12:21.551Z,10.05
2017-11-15T03:12:47.683Z,9.98
2017-11-15T03:13:13.829Z,9.99
2017-11-15T03:13:39.984Z,9.92
2017-11-15T03:14:06.121Z,10.05
2017-11-15T03:14:32.268Z,9.95
2017-11-15T03:14:58.410Z,9.97
2017-11-15T03:15:24.560Z,9.99
2017-11-15T03:15:50.722Z,10.01
2017-11-15T03:16:16.874Z,9.95
2017-11-15T03:16:43.013Z,9.99
2017-11-15T03:17:09.171Z,9.95
2017-11-15T03:17:35.330Z,9.95
2017-11-15T03:18:01.473Z,9.99
2017-11-15T03:18:27.621Z,9.99
2017-11-15T03:18:53.762Z,10.02
2017-11-15T03:19:19.908Z,10.05
2017-11-15T03:19:46.053Z,10.04
2017-11-15T03:20:12.194Z,10.07
2017-11-15T03:20:38.343Z,10.07
2017-11-15T03:21:04.490Z,10.07
2017-11-15T03:21:30.625Z,10.15
2017-11-15T03:21:56.781Z,10.09
2017-11-15T03:22:22.920Z,10.05
2017-11-15T03:22:49.070Z,10.15
2017-11-15T03:23:15.213Z,10.13
2017-11-15T03:23:41.364Z,10.16
2017-11-15T03:24:07.505Z,10.13
2017-11-15T03:24:33.641Z,10.15
2017-11-15T03:24:59.792Z,10.16
2017-11-15T03:25:25.940Z,10.17
2017-11-15T03:25:52.080Z,10.19
2017-11-15T03:26:18.243Z,10.17
2017-11-15T03:26:44.394Z,10.17
2017-11-15T03:27:10.570Z,10.17
2017-11-15T03:27:36.681Z,10.16
2017-11-15T03:28:02.847Z,10.13
2017-11-15T03:28:28.998Z,10.05
2017-11-15T03:28:55.145Z,9.89
2017-11-15T03:29:21.290Z,10.01
2017-11-15T03:29:47.438Z,9.98
2017-11-15T03:30:13.588Z,9.98
2017-11-15T03:30:39.748Z,9.99
2017-11-15T03:31:05.907Z,10.01
2017-11-15T03:31:32.036Z,10.02
2017-11-15T03:31:58.187Z,10.09
2017-11-15T03:32:24.336Z,10.16
2017-11-15T03:32:50.478Z,10.16
2017-11-15T03:33:16.616Z,10.19
2017-11-15T03:33:42.768Z,10.1
2017-11-15T03:34:08.909Z,10.01
2017-11-15T03:34:35.083Z,10.01
2017-11-15T03:35:01.228Z,9.97
2017-11-15T03:35:27.373Z,10.01
2017-11-15T03:35:53.511Z,10.01
2017-11-15T03:36:19.663Z,9.97
2017-11-15T03:36:45.812Z,9.92
2017-11-15T03:37:11.956Z,9.97
2017-11-15T03:37:38.103Z,10.09
2017-11-15T03:38:04.246Z,10.04
2017-11-15T03:38:30.414Z,10.07
2017-11-15T03:38:56.563Z,10.05
2017-11-15T03:39:22.707Z,10.12
2017-11-15T03:39:48.853Z,10.09
2017-11-15T03:40:15.003Z,10.07
2017-11-15T03:40:41.168Z,10.09
2017-11-15T03:41:07.308Z,10.09
2017-11-15T03:41:33.459Z,10.05
2017-11-15T03:41:59.633Z,10.12
2017-11-15T03:42:25.769Z,10.12
2017-11-15T03:42:51.921Z,10.02
2017-11-15T03:43:18.060Z,10.02
2017-11-15T03:43:44.219Z,10.04
2017-11-15T03:44:10.357Z,10.02
2017-11-15T03:44:36.507Z,10.05
2017-11-15T03:45:02.641Z,10.09
2017-11-15T03:45:28.786Z,10.02
2017-11-15T03:45:54.933Z,10.09
2017-11-15T03:46:21.085Z,9.99
2017-11-15T03:46:47.241Z,9.97
2017-11-15T03:47:13.383Z,9.99
2017-11-15T03:47:39.539Z,9.95
2017-11-15T03:48:05.681Z,9.95
2017-11-15T03:48:31.851Z,9.98
2017-11-15T03:48:57.998Z,10.02
2017-11-15T03:49:24.136Z,10.01
2017-11-15T03:49:50.276Z,9.99
2017-11-15T03:50:16.426Z,9.97
2017-11-15T03:50:42.575Z,9.99
2017-11-15T03:51:08.722Z,9.86
2017-11-15T03:51:34.868Z,9.86
2017-11-15T03:52:01.016Z,9.98
2017-11-15T03:52:27.152Z,9.89
2017-11-15T03:52:53.306Z,9.97
2017-11-15T03:53:19.453Z,9.94
2017-11-15T03:53:45.603Z,9.98
2017-11-15T03:54:11.773Z,10.04
2017-11-15T03:54:37.921Z,9.98
2017-11-15T03:55:04.072Z,9.95
2017-11-15T03:55:30.213Z,9.83
2017-11-15T03:55:56.357Z,9.92
2017-11-15T03:56:22.529Z,9.79
2017-11-15T03:56:48.665Z,9.84
2017-11-15T03:57:14.811Z,9.84
2017-11-15T03:57:40.957Z,9.92
2017-11-15T03:58:07.099Z,9.83
2017-11-15T03:58:33.241Z,9.97
2017-11-15T03:58:59.391Z,9.83
2017-11-15T03:59:25.529Z,9.95
2017-11-15T03:59:51.710Z,9.83
2017-11-15T04:00:17.890Z,9.92
2017-11-15T04:00:44.001Z,9.87
2017-11-15T04:01:10.173Z,9.92
2017-11-15T04:01:36.313Z,9.84
2017-11-15T04:02:02.452Z,9.95
2017-11-15T04:02:28.603Z,9.82
2017-11-15T04:02:54.752Z,9.92
2017-11-15T04:03:20.898Z,9.95
2017-11-15T04:03:47.045Z,9.92
2017-11-15T04:04:13.191Z,9.92
2017-11-15T04:04:39.333Z,9.97
2017-11-15T04:05:05.481Z,9.86
2017-11-15T04:05:31.630Z,9.79
2017-11-15T04:05:57.768Z,9.86
2017-11-15T04:06:23.928Z,9.84
2017-11-15T04:06:50.070Z,9.92
2017-11-15T04:07:16.219Z,9.92
2017-11-15T04:07:42.361Z,9.83
2017-11-15T04:08:08.508Z,9.95
2017-11-15T04:08:34.651Z,9.8
2017-11-15T04:09:00.801Z,9.77
2017-11-15T04:09:26.943Z,9.87
2017-11-15T04:09:53.087Z,9.91
2017-11-15T04:10:19.224Z,9.98
2017-11-15T04:10:45.396Z,9.83
2017-11-15T04:11:11.536Z,9.95
2017-11-15T04:11:37.687Z,9.94
2017-11-15T04:12:03.830Z,9.97
2017-11-15T04:12:29.972Z,10.01
2017-11-15T04:12:56.156Z,9.94
2017-11-15T04:13:22.292Z,10.01
2017-11-15T04:13:48.442Z,9.95
2017-11-15T04:14:14.586Z,9.84
2017-11-15T04:14:40.736Z,9.91
2017-11-15T04:15:06.881Z,9.94
2017-11-15T04:15:33.048Z,9.87
2017-11-15T04:15:59.186Z,9.97
2017-11-15T04:16:25.333Z,9.94
2017-11-15T04:16:51.476Z,9.91
2017-11-15T04:17:17.622Z,9.97
2017-11-15T04:17:43.774Z,9.99
2017-11-15T04:18:09.913Z,10.01
2017-11-15T04:18:36.053Z,9.95
2017-11-15T04:19:02.205Z,10.05
2017-11-15T04:19:28.351Z,9.92
2017-11-15T04:19:54.491Z,9.97
2017-11-15T04:20:20.639Z,10.01
2017-11-15T04:20:46.782Z,10.01
2017-11-15T04:21:12.952Z,10.09
2017-11-15T04:21:39.104Z,10.07
2017-11-15T04:22:05.246Z,10.09
2017-11-15T04:22:31.393Z,10.01
2017-11-15T04:22:57.531Z,10.01
2017-11-15T04:23:23.681Z,9.95
2017-11-15T04:23:49.831Z,9.99
2017-11-15T04:24:15.968Z,10.04
2017-11-15T04:24:42.109Z,9.95
2017-11-15T04:25:08.266Z,9.95
2017-11-15T04:25:34.403Z,10.05
2017-11-15T04:26:00.543Z,10.02
2017-11-15T04:26:26.695Z,10.13
2017-11-15T04:26:52.836Z,10.16
2017-11-15T04:27:18.983Z,10.2
2017-11-15T04:27:45.120Z,10.16
2017-11-15T04:28:11.278Z,10.12
2017-11-15T04:28:37.414Z,10.19
2017-11-15T04:29:03.557Z,10.1
2017-11-15T04:29:29.703Z,9.99
2017-11-15T04:29:55.853Z,10.07
2017-11-15T04:30:21.992Z,10.04
2017-11-15T04:30:48.131Z,9.97
2017-11-15T04:31:14.307Z,10.02
2017-11-15T04:31:40.448Z,9.99
2017-11-15T04:32:06.605Z,9.97
2017-11-15T04:32:32.742Z,9.99
2017-11-15T04:32:58.894Z,9.98
2017-11-15T04:33:25.036Z,10.01
2017-11-15T04:33:51.177Z,10.1
2017-11-15T04:34:17.320Z,10.15
2017-11-15T04:34:43.471Z,9.99
2017-11-15T04:35:09.611Z,9.97
2017-11-15T04:35:35.751Z,9.95
2017-11-15T04:36:01.906Z,9.97
2017-11-15T04:36:28.044Z,10.02
2017-11-15T04:36:54.196Z,9.97
2017-11-15T04:37:20.343Z,10.07
2017-11-15T04:37:46.485Z,10.04
2017-11-15T04:38:12.628Z,10.02
2017-11-15T04:38:38.775Z,9.97
2017-11-15T04:39:04.921Z,10.04
2017-11-15T04:39:31.066Z,9.94
2017-11-15T04:39:57.215Z,9.97
2017-11-15T04:40:23.381Z,9.99
2017-11-15T04:40:49.525Z,9.95
2017-11-15T04:41:15.669Z,9.91
2017-11-15T04:41:41.812Z,9.95
2017-11-15T04:42:07.954Z,10.02
2017-11-15T04:42:34.133Z,9.95
2017-11-15T04:43:00.282Z,9.92
2017-11-15T04:43:26.419Z,10.01
2017-11-15T04:43:52.559Z,9.92
2017-11-15T04:44:18.709Z,9.92
2017-11-15T04:44:44.848Z,9.89
2017-11-15T04:45:10.994Z,9.94
2017-11-15T04:45:37.148Z,9.86
2017-11-15T04:46:03.289Z,9.92
2017-11-15T04:46:29.435Z,9.82
2017-11-15T04:46:55.580Z,9.77
2017-11-15T04:47:21.743Z,9.86
2017-11-15T04:47:47.893Z,9.77
2017-11-15T04:48:14.036Z,9.86
2017-11-15T04:48:40.182Z,9.95
2017-11-15T04:49:06.334Z,9.86
2017-11-15T04:49:32.498Z,9.87
2017-11-15T04:49:58.640Z,9.83
2017-11-15T04:50:24.793Z,9.95
2017-11-15T04:50:50.937Z,9.84
2017-11-15T04:51:17.116Z,9.92
2017-11-15T04:51:43.231Z,9.92
2017-11-15T04:52:09.377Z,9.95
2017-11-15T04:52:35.523Z,9.92
2017-11-15T04:53:01.673Z,9.95
2017-11-15T04:53:27.815Z,10.04
2017-11-15T04:53:53.958Z,10.1
2017-11-15T04:54:20.135Z,10.15
2017-11-15T04:54:46.276Z,10.17
2017-11-15T04:55:12.423Z,10.12
2017-11-15T04:55:38.565Z,10.13
2017-11-15T04:56:04.728Z,10.15
2017-11-15T04:56:30.929Z,10.09
2017-11-15T04:56:57.079Z,9.97
2017-11-15T04:57:23.226Z,10.02
2017-11-15T04:57:49.372Z,9.99
2017-11-15T04:58:15.520Z,9.99
2017-11-15T04:58:41.668Z,9.95
2017-11-15T04:59:07.804Z,9.86
2017-11-15T04:59:33.955Z,9.87
2017-11-15T05:00:00.102Z,9.87
2017-11-15T05:00:26.240Z,9.91
2017-11-15T05:00:52.389Z,9.95
2017-11-15T05:01:18.530Z,10.01
2017-11-15T05:01:44.672Z,9.97
2017-11-15T05:02:10.810Z,9.94
2017-11-15T05:02:36.962Z,9.97
2017-11-15T05:03:03.112Z,9.95
2017-11-15T05:03:29.255Z,9.92
2017-11-15T05:03:55.431Z,9.98
2017-11-15T05:04:21.607Z,9.97
2017-11-15T05:04:47.744Z,9.97
2017-11-15T05:05:13.892Z,9.99
2017-11-15T05:05:40.041Z,9.97
2017-11-15T05:06:06.186Z,9.92
2017-11-15T05:06:32.328Z,10.04
2017-11-15T05:06:58.479Z,9.94
2017-11-15T05:07:24.627Z,9.95
2017-11-15T05:07:50.767Z,9.89
2017-11-15T05:08:16.915Z,9.87
2017-11-15T05:08:43.064Z,9.8
2017-11-15T05:09:09.207Z,9.89
2017-11-15T05:09:35.357Z,9.87
2017-11-15T05:10:01.532Z,9.94
2017-11-15T05:10:27.669Z,9.94
2017-11-15T05:10:53.842Z,9.92
2017-11-15T05:11:19.983Z,9.99
2017-11-15T05:11:46.127Z,9.95
2017-11-15T05:12:12.278Z,9.99
2017-11-15T05:12:38.417Z,9.98
2017-11-15T05:13:04.589Z,9.99
2017-11-15T05:13:30.742Z,9.95
2017-11-15T05:13:56.888Z,9.92
2017-11-15T05:14:23.024Z,9.95
2017-11-15T05:14:49.173Z,9.92
2017-11-15T05:15:15.313Z,10.01
2017-11-15T05:15:41.454Z,9.92
2017-11-15T05:16:07.626Z,9.95
2017-11-15T05:16:33.776Z,9.99
2017-11-15T05:16:59.924Z,9.99
2017-11-15T05:17:26.066Z,9.99
2017-11-15T05:17:52.217Z,9.95
2017-11-15T05:18:18.358Z,9.94
2017-11-15T05:18:44.498Z,9.99
2017-11-15T05:19:10.656Z,9.95
2017-11-15T05:19:36.795Z,9.95
2017-11-15T05:20:02.934Z,10.04
2017-11-15T05:20:29.079Z,9.94
2017-11-15T05:20:55.224Z,9.94
2017-11-15T05:21:21.362Z,10.01
2017-11-15T05:21:47.509Z,10.09
2017-11-15T05:22:13.660Z,10.02
2017-11-15T05:22:39.832Z,10.12
2017-11-15T05:23:05.986Z,9.98
2017-11-15T05:23:32.134Z,10.07
2017-11-15T05:23:58.284Z,9.92
2017-11-15T05:24:24.449Z,10.02
2017-11-15T05:24:50.598Z,9.94
2017-11-15T05:25:16.768Z,9.95
2017-11-15T05:25:42.920Z,9.97
2017-11-15T05:26:09.069Z,10.01
2017-11-15T05:26:35.202Z,9.99
2017-11-15T05:27:01.347Z,9.95
2017-11-15T05:27:27.518Z,9.94
2017-11-15T05:27:53.671Z,9.92
2017-11-15T05:28:19.826Z,9.92
2017-11-15T05:28:45.954Z,9.94
2017-11-15T05:29:12.117Z,9.98
2017-11-15T05:29:38.262Z,9.97
2017-11-15T05:30:04.397Z,10.01
2017-11-15T05:30:30.543Z,9.95
2017-11-15T05:30:56.690Z,9.98
2017-11-15T05:31:22.838Z,9.95
2017-11-15T05:31:48.989Z,9.95
2017-11-15T05:32:15.142Z,10.01
2017-11-15T05:32:41.270Z,9.95
2017-11-15T05:33:07.441Z,9.8
2017-11-15T05:33:33.608Z,9.86
2017-11-15T05:33:59.758Z,9.86
2017-11-15T05:34:25.896Z,9.87
2017-11-15T05:34:52.041Z,9.8
2017-11-15T05:35:18.193Z,9.79
2017-11-15T05:35:44.331Z,9.84
2017-11-15T05:36:10.482Z,9.77
2017-11-15T05:36:36.622Z,9.82
2017-11-15T05:37:02.764Z,9.95
2017-11-15T05:37:28.912Z,9.83
2017-11-15T05:37:55.088Z,9.95
2017-11-15T05:38:21.231Z,9.95
2017-11-15T05:38:47.367Z,9.94
2017-11-15T05:39:13.520Z,9.95
2017-11-15T05:39:39.661Z,9.83
2017-11-15T05:40:05.810Z,9.89
2017-11-15T05:40:31.953Z,9.89
2017-11-15T05:40:58.095Z,9.8
2017-11-15T05:41:24.243Z,9.86